sensor_id;sensor_type;location;lat;lon;timestamp;pressure;altitude;pressure_sealevel;temperature;humidity
46087;BME280;31824;49.648;8.640;2023-03-31T00:00:16;99597.63;;;11.96;100.00
46087;BME280;31824;49.648;8.640;2023-03-31T00:03:18;99592.38;;;11.96;100.00
46087;BME280;31824;49.648;8.640;2023-03-31T00:06:25;99584.81;;;12.01;100.00
46087;BME280;31824;49.648;8.640;2023-03-31T00:09:26;99585.75;;;12.01;100.00
46087;BME280;31824;49.648;8.640;2023-03-31T00:12:32;99578.06;;;12.04;100.00
46087;BME280;31824;49.648;8.640;2023-03-31T00:15:34;99580.47;;;12.01;100.00
46087;BME280;31824;49.648;8.640;2023-03-31T00:18:36;99575.78;;;11.97;100.00
46087;BME280;31824;49.648;8.640;2023-03-31T00:21:47;99580.63;;;11.92;100.00
46087;BME280;31824;49.648;8.640;2023-03-31T00:24:50;99562.91;;;11.90;100.00
46087;BME280;31824;49.648;8.640;2023-03-31T00:27:53;99558.56;;;11.90;100.00
46087;BME280;31824;49.648;8.640;2023-03-31T00:30:59;99557.25;;;11.95;100.00
46087;BME280;31824;49.648;8.640;2023-03-31T00:34:01;99539.47;;;11.93;100.00
46087;BME280;31824;49.648;8.640;2023-03-31T00:37:03;99536.41;;;11.98;100.00
46087;BME280;31824;49.648;8.640;2023-03-31T00:40:07;99531.94;;;11.97;100.00
46087;BME280;31824;49.648;8.640;2023-03-31T00:43:26;99532.72;;;11.96;100.00
46087;BME280;31824;49.648;8.640;2023-03-31T00:46:32;99518.56;;;11.94;100.00
46087;BME280;31824;49.648;8.640;2023-03-31T00:49:36;99513.72;;;11.89;100.00
46087;BME280;31824;49.648;8.640;2023-03-31T00:52:41;99508.19;;;11.86;100.00
46087;BME280;31824;49.648;8.640;2023-03-31T00:55:44;99514.84;;;11.92;100.00
46087;BME280;31824;49.648;8.640;2023-03-31T00:58:49;99513.06;;;12.03;100.00
46087;BME280;31824;49.648;8.640;2023-03-31T01:01:51;99509.97;;;11.97;100.00
46087;BME280;31824;49.648;8.640;2023-03-31T01:04:59;99501.41;;;11.99;100.00
46087;BME280;31824;49.648;8.640;2023-03-31T01:08:03;99499.66;;;12.00;100.00
46087;BME280;31824;49.648;8.640;2023-03-31T01:11:09;99499.56;;;11.98;100.00
46087;BME280;31824;49.648;8.640;2023-03-31T01:14:13;99490.88;;;11.99;100.00
46087;BME280;31824;49.648;8.640;2023-03-31T01:17:18;99487.19;;;11.97;100.00
46087;BME280;31824;49.648;8.640;2023-03-31T01:20:29;99481.56;;;11.93;100.00
46087;BME280;31824;49.648;8.640;2023-03-31T01:27:26;99465.22;;;11.97;100.00
46087;BME280;31824;49.648;8.640;2023-03-31T01:30:46;99467.75;;;11.95;100.00
46087;BME280;31824;49.648;8.640;2023-03-31T01:34:22;99462.50;;;11.95;100.00
46087;BME280;31824;49.648;8.640;2023-03-31T01:38:04;99445.50;;;11.92;100.00
46087;BME280;31824;49.648;8.640;2023-03-31T01:41:27;99444.03;;;11.83;100.00
46087;BME280;31824;49.648;8.640;2023-03-31T01:44:39;99442.41;;;11.74;100.00
46087;BME280;31824;49.648;8.640;2023-03-31T01:47:51;99439.69;;;11.72;100.00
46087;BME280;31824;49.648;8.640;2023-03-31T01:51:01;99435.75;;;11.79;100.00
46087;BME280;31824;49.648;8.640;2023-03-31T01:54:10;99427.75;;;11.77;100.00
46087;BME280;31824;49.648;8.640;2023-03-31T01:57:17;99422.28;;;11.74;100.00
46087;BME280;31824;49.648;8.640;2023-03-31T02:00:27;99418.38;;;11.81;100.00
46087;BME280;31824;49.648;8.640;2023-03-31T02:03:33;99411.66;;;11.85;100.00
46087;BME280;31824;49.648;8.640;2023-03-31T02:06:40;99407.84;;;11.81;100.00
46087;BME280;31824;49.648;8.640;2023-03-31T02:09:48;99397.44;;;11.82;100.00
46087;BME280;31824;49.648;8.640;2023-03-31T02:12:53;99391.38;;;11.83;100.00
46087;BME280;31824;49.648;8.640;2023-03-31T02:16:01;99401.22;;;11.86;100.00
46087;BME280;31824;49.648;8.640;2023-03-31T02:19:04;99390.03;;;11.89;100.00
46087;BME280;31824;49.648;8.640;2023-03-31T02:22:07;99377.44;;;11.96;100.00
46087;BME280;31824;49.648;8.640;2023-03-31T02:25:16;99376.06;;;12.02;100.00
46087;BME280;31824;49.648;8.640;2023-03-31T02:28:24;99372.28;;;11.98;100.00
46087;BME280;31824;49.648;8.640;2023-03-31T02:31:40;99363.47;;;11.74;100.00
46087;BME280;31824;49.648;8.640;2023-03-31T02:34:44;99374.09;;;11.63;100.00
46087;BME280;31824;49.648;8.640;2023-03-31T02:37:47;99365.31;;;11.51;100.00
46087;BME280;31824;49.648;8.640;2023-03-31T02:40:50;99359.34;;;11.42;100.00
46087;BME280;31824;49.648;8.640;2023-03-31T02:43:53;99348.94;;;11.20;100.00
46087;BME280;31824;49.648;8.640;2023-03-31T02:46:57;99358.16;;;11.14;100.00
46087;BME280;31824;49.648;8.640;2023-03-31T02:50:00;99358.72;;;11.10;100.00
46087;BME280;31824;49.648;8.640;2023-03-31T02:53:09;99347.44;;;11.11;100.00
46087;BME280;31824;49.648;8.640;2023-03-31T02:56:29;99337.34;;;11.18;100.00
46087;BME280;31824;49.648;8.640;2023-03-31T02:59:43;99330.28;;;11.17;100.00
46087;BME280;31824;49.648;8.640;2023-03-31T03:03:07;99314.16;;;11.12;100.00
46087;BME280;31824;49.648;8.640;2023-03-31T03:06:23;99305.00;;;11.07;100.00
46087;BME280;31824;49.648;8.640;2023-03-31T03:09:40;99287.84;;;11.00;100.00
46087;BME280;31824;49.648;8.640;2023-03-31T03:12:52;99272.91;;;10.99;100.00
46087;BME280;31824;49.648;8.640;2023-03-31T03:16:02;99262.50;;;11.01;100.00
46087;BME280;31824;49.648;8.640;2023-03-31T03:19:07;99255.53;;;11.01;100.00
46087;BME280;31824;49.648;8.640;2023-03-31T03:22:10;99246.28;;;11.06;100.00
46087;BME280;31824;49.648;8.640;2023-03-31T03:25:15;99232.56;;;11.10;100.00
46087;BME280;31824;49.648;8.640;2023-03-31T03:28:18;99231.78;;;11.11;100.00
46087;BME280;31824;49.648;8.640;2023-03-31T03:31:24;99231.19;;;11.15;100.00
46087;BME280;31824;49.648;8.640;2023-03-31T03:34:27;99228.47;;;11.14;100.00
46087;BME280;31824;49.648;8.640;2023-03-31T03:37:29;99205.94;;;11.18;100.00
46087;BME280;31824;49.648;8.640;2023-03-31T03:40:33;99205.94;;;11.18;100.00
46087;BME280;31824;49.648;8.640;2023-03-31T03:43:35;99187.53;;;11.18;100.00
46087;BME280;31824;49.648;8.640;2023-03-31T03:46:39;99176.31;;;11.20;100.00
46087;BME280;31824;49.648;8.640;2023-03-31T03:49:41;99174.28;;;11.28;100.00
46087;BME280;31824;49.648;8.640;2023-03-31T03:52:44;99165.59;;;11.29;100.00
46087;BME280;31824;49.648;8.640;2023-03-31T03:55:46;99159.50;;;11.30;100.00
46087;BME280;31824;49.648;8.640;2023-03-31T03:58:50;99133.22;;;11.30;100.00
46087;BME280;31824;49.648;8.640;2023-03-31T04:01:53;99141.09;;;11.30;100.00
46087;BME280;31824;49.648;8.640;2023-03-31T04:04:55;99133.00;;;11.27;100.00
46087;BME280;31824;49.648;8.640;2023-03-31T04:07:58;99122.06;;;11.21;100.00
46087;BME280;31824;49.648;8.640;2023-03-31T04:10:59;99132.19;;;11.28;100.00
46087;BME280;31824;49.648;8.640;2023-03-31T04:14:02;99140.75;;;11.37;100.00
46087;BME280;31824;49.648;8.640;2023-03-31T04:17:05;99122.47;;;11.39;100.00
46087;BME280;31824;49.648;8.640;2023-03-31T04:20:09;99135.13;;;11.44;100.00
46087;BME280;31824;49.648;8.640;2023-03-31T04:23:12;99120.25;;;11.45;100.00
46087;BME280;31824;49.648;8.640;2023-03-31T04:26:17;99111.47;;;11.44;100.00
46087;BME280;31824;49.648;8.640;2023-03-31T04:29:28;99091.28;;;11.31;100.00
46087;BME280;31824;49.648;8.640;2023-03-31T04:32:36;99079.00;;;11.44;100.00
46087;BME280;31824;49.648;8.640;2023-03-31T04:35:38;99078.41;;;11.48;100.00
46087;BME280;31824;49.648;8.640;2023-03-31T04:38:50;99074.59;;;11.56;100.00
46087;BME280;31824;49.648;8.640;2023-03-31T04:41:57;99068.22;;;11.53;100.00
46087;BME280;31824;49.648;8.640;2023-03-31T04:44:59;99062.34;;;11.57;100.00
46087;BME280;31824;49.648;8.640;2023-03-31T04:48:02;99067.72;;;11.58;100.00
46087;BME280;31824;49.648;8.640;2023-03-31T04:51:04;99085.72;;;11.52;100.00
46087;BME280;31824;49.648;8.640;2023-03-31T04:54:09;99083.50;;;11.33;100.00
46087;BME280;31824;49.648;8.640;2023-03-31T04:57:11;99078.97;;;11.19;100.00
46087;BME280;31824;49.648;8.640;2023-03-31T05:00:15;99088.97;;;10.99;100.00
46087;BME280;31824;49.648;8.640;2023-03-31T05:03:18;99092.84;;;10.92;100.00
46087;BME280;31824;49.648;8.640;2023-03-31T05:06:21;99082.91;;;10.88;100.00
46087;BME280;31824;49.648;8.640;2023-03-31T05:09:23;99079.94;;;10.84;100.00
46087;BME280;31824;49.648;8.640;2023-03-31T05:12:28;99077.66;;;10.76;100.00
46087;BME280;31824;49.648;8.640;2023-03-31T05:15:30;99070.94;;;10.68;100.00
46087;BME280;31824;49.648;8.640;2023-03-31T05:18:37;99066.94;;;10.61;100.00
46087;BME280;31824;49.648;8.640;2023-03-31T05:21:47;99069.47;;;10.60;100.00
46087;BME280;31824;49.648;8.640;2023-03-31T05:24:49;99069.69;;;10.51;100.00
46087;BME280;31824;49.648;8.640;2023-03-31T05:27:51;99061.13;;;10.54;100.00
46087;BME280;31824;49.648;8.640;2023-03-31T05:30:53;99057.25;;;10.49;100.00
46087;BME280;31824;49.648;8.640;2023-03-31T05:33:56;99052.66;;;10.58;100.00
46087;BME280;31824;49.648;8.640;2023-03-31T05:36:58;99055.28;;;10.58;100.00
46087;BME280;31824;49.648;8.640;2023-03-31T05:40:04;99039.78;;;10.61;100.00
46087;BME280;31824;49.648;8.640;2023-03-31T05:43:06;99040.38;;;10.57;100.00
46087;BME280;31824;49.648;8.640;2023-03-31T05:46:08;99023.09;;;10.60;100.00
46087;BME280;31824;49.648;8.640;2023-03-31T05:49:12;99013.25;;;10.70;100.00
46087;BME280;31824;49.648;8.640;2023-03-31T05:52:16;99012.84;;;10.63;100.00
46087;BME280;31824;49.648;8.640;2023-03-31T05:55:18;99006.66;;;10.63;100.00
46087;BME280;31824;49.648;8.640;2023-03-31T05:58:22;99001.19;;;10.60;100.00
46087;BME280;31824;49.648;8.640;2023-03-31T06:01:25;99000.88;;;10.55;100.00
46087;BME280;31824;49.648;8.640;2023-03-31T06:04:30;98993.69;;;10.53;100.00
46087;BME280;31824;49.648;8.640;2023-03-31T06:07:33;98991.16;;;10.42;100.00
46087;BME280;31824;49.648;8.640;2023-03-31T06:10:37;98993.22;;;10.46;100.00
46087;BME280;31824;49.648;8.640;2023-03-31T06:13:39;98972.22;;;10.46;100.00
46087;BME280;31824;49.648;8.640;2023-03-31T06:16:43;98951.78;;;10.42;100.00
46087;BME280;31824;49.648;8.640;2023-03-31T06:19:46;98933.19;;;10.39;100.00
46087;BME280;31824;49.648;8.640;2023-03-31T06:22:48;98919.47;;;10.31;100.00
46087;BME280;31824;49.648;8.640;2023-03-31T06:25:50;98918.78;;;10.34;100.00
46087;BME280;31824;49.648;8.640;2023-03-31T06:28:53;98902.59;;;10.40;100.00
46087;BME280;31824;49.648;8.640;2023-03-31T06:31:55;98882.63;;;10.42;100.00
46087;BME280;31824;49.648;8.640;2023-03-31T06:34:59;98878.00;;;10.51;100.00
46087;BME280;31824;49.648;8.640;2023-03-31T06:38:00;98855.28;;;10.63;100.00
46087;BME280;31824;49.648;8.640;2023-03-31T06:41:07;98867.44;;;10.75;100.00
46087;BME280;31824;49.648;8.640;2023-03-31T06:44:10;98858.56;;;10.86;100.00
46087;BME280;31824;49.648;8.640;2023-03-31T06:47:12;98859.50;;;10.87;100.00
46087;BME280;31824;49.648;8.640;2023-03-31T06:50:15;98860.59;;;10.90;100.00
46087;BME280;31824;49.648;8.640;2023-03-31T06:53:17;98857.69;;;10.86;100.00
46087;BME280;31824;49.648;8.640;2023-03-31T06:56:20;98861.75;;;10.94;100.00
46087;BME280;31824;49.648;8.640;2023-03-31T06:59:22;98863.34;;;10.92;100.00
46087;BME280;31824;49.648;8.640;2023-03-31T07:02:25;98858.03;;;11.04;100.00
46087;BME280;31824;49.648;8.640;2023-03-31T07:05:28;98869.66;;;11.07;100.00
46087;BME280;31824;49.648;8.640;2023-03-31T07:08:31;98868.03;;;11.09;100.00
46087;BME280;31824;49.648;8.640;2023-03-31T07:11:33;98870.88;;;10.99;100.00
46087;BME280;31824;49.648;8.640;2023-03-31T07:14:35;98857.94;;;11.02;100.00
46087;BME280;31824;49.648;8.640;2023-03-31T07:17:37;98873.00;;;11.05;100.00
46087;BME280;31824;49.648;8.640;2023-03-31T07:20:48;98868.53;;;11.04;100.00
46087;BME280;31824;49.648;8.640;2023-03-31T07:23:51;98872.59;;;11.12;100.00
46087;BME280;31824;49.648;8.640;2023-03-31T07:26:53;98861.19;;;11.11;100.00
46087;BME280;31824;49.648;8.640;2023-03-31T07:29:59;98860.75;;;11.05;100.00
46087;BME280;31824;49.648;8.640;2023-03-31T07:33:01;98863.38;;;11.05;100.00
46087;BME280;31824;49.648;8.640;2023-03-31T07:36:06;98858.13;;;11.05;100.00
46087;BME280;31824;49.648;8.640;2023-03-31T07:39:19;98858.88;;;11.16;100.00
46087;BME280;31824;49.648;8.640;2023-03-31T07:42:21;98862.03;;;11.24;100.00
46087;BME280;31824;49.648;8.640;2023-03-31T07:45:24;98858.00;;;11.29;100.00
46087;BME280;31824;49.648;8.640;2023-03-31T07:48:26;98852.25;;;11.35;100.00
46087;BME280;31824;49.648;8.640;2023-03-31T07:51:30;98845.06;;;11.32;100.00
46087;BME280;31824;49.648;8.640;2023-03-31T07:54:32;98851.72;;;11.27;100.00
46087;BME280;31824;49.648;8.640;2023-03-31T07:57:38;98869.13;;;11.25;100.00
46087;BME280;31824;49.648;8.640;2023-03-31T08:00:41;98899.47;;;11.08;100.00
46087;BME280;31824;49.648;8.640;2023-03-31T08:03:44;98888.25;;;9.99;100.00
46087;BME280;31824;49.648;8.640;2023-03-31T08:06:49;98872.97;;;10.05;100.00
46087;BME280;31824;49.648;8.640;2023-03-31T08:09:53;98871.25;;;9.94;100.00
46087;BME280;31824;49.648;8.640;2023-03-31T08:12:55;98906.19;;;9.93;100.00
46087;BME280;31824;49.648;8.640;2023-03-31T08:15:57;98886.78;;;10.03;100.00
46087;BME280;31824;49.648;8.640;2023-03-31T08:18:59;98882.69;;;9.83;100.00
46087;BME280;31824;49.648;8.640;2023-03-31T08:22:04;98901.03;;;9.94;100.00
46087;BME280;31824;49.648;8.640;2023-03-31T08:25:07;98883.41;;;10.17;100.00
46087;BME280;31824;49.648;8.640;2023-03-31T08:28:09;98882.16;;;10.24;100.00
46087;BME280;31824;49.648;8.640;2023-03-31T08:31:15;98878.16;;;10.17;100.00
46087;BME280;31824;49.648;8.640;2023-03-31T08:34:21;98912.63;;;10.34;100.00
46087;BME280;31824;49.648;8.640;2023-03-31T08:37:27;98898.25;;;10.28;100.00
46087;BME280;31824;49.648;8.640;2023-03-31T08:40:30;98925.66;;;10.20;100.00
46087;BME280;31824;49.648;8.640;2023-03-31T08:43:39;98923.81;;;10.19;100.00
46087;BME280;31824;49.648;8.640;2023-03-31T08:46:45;98919.94;;;10.14;100.00
46087;BME280;31824;49.648;8.640;2023-03-31T08:49:50;98913.13;;;10.16;100.00
46087;BME280;31824;49.648;8.640;2023-03-31T08:53:04;98908.84;;;10.30;100.00
46087;BME280;31824;49.648;8.640;2023-03-31T08:56:13;98910.09;;;10.47;100.00
46087;BME280;31824;49.648;8.640;2023-03-31T08:59:21;98917.94;;;10.59;100.00
46087;BME280;31824;49.648;8.640;2023-03-31T09:02:31;98904.41;;;10.53;100.00
46087;BME280;31824;49.648;8.640;2023-03-31T09:05:51;98886.94;;;10.41;100.00
46087;BME280;31824;49.648;8.640;2023-03-31T09:09:20;98889.84;;;10.58;100.00
46087;BME280;31824;49.648;8.640;2023-03-31T09:12:35;98890.41;;;10.66;100.00
46087;BME280;31824;49.648;8.640;2023-03-31T09:15:41;98873.00;;;10.79;100.00
46087;BME280;31824;49.648;8.640;2023-03-31T09:18:44;98869.38;;;10.77;100.00
46087;BME280;31824;49.648;8.640;2023-03-31T09:21:50;98888.22;;;10.97;100.00
46087;BME280;31824;49.648;8.640;2023-03-31T09:24:59;98903.13;;;10.85;100.00
46087;BME280;31824;49.648;8.640;2023-03-31T09:28:08;98895.19;;;10.71;100.00
46087;BME280;31824;49.648;8.640;2023-03-31T09:31:17;98900.69;;;10.74;100.00
46087;BME280;31824;49.648;8.640;2023-03-31T09:34:24;98907.78;;;10.63;100.00
46087;BME280;31824;49.648;8.640;2023-03-31T09:37:29;98971.75;;;10.28;100.00
46087;BME280;31824;49.648;8.640;2023-03-31T09:40:34;98958.63;;;9.81;100.00
46087;BME280;31824;49.648;8.640;2023-03-31T09:43:41;98961.69;;;9.63;100.00
46087;BME280;31824;49.648;8.640;2023-03-31T09:46:45;98968.34;;;9.36;100.00
46087;BME280;31824;49.648;8.640;2023-03-31T09:49:47;98950.88;;;9.25;100.00
46087;BME280;31824;49.648;8.640;2023-03-31T09:52:58;98932.78;;;9.28;100.00
46087;BME280;31824;49.648;8.640;2023-03-31T09:56:45;98909.53;;;9.21;100.00
46087;BME280;31824;49.648;8.640;2023-03-31T09:59:49;98892.41;;;9.26;100.00
46087;BME280;31824;49.648;8.640;2023-03-31T10:02:52;98869.75;;;9.38;100.00
46087;BME280;31824;49.648;8.640;2023-03-31T10:05:56;98868.97;;;9.75;100.00
46087;BME280;31824;49.648;8.640;2023-03-31T10:09:01;98851.41;;;10.09;100.00
46087;BME280;31824;49.648;8.640;2023-03-31T10:12:07;98844.97;;;10.29;100.00
46087;BME280;31824;49.648;8.640;2023-03-31T10:15:18;98843.25;;;10.18;100.00
46087;BME280;31824;49.648;8.640;2023-03-31T10:18:32;98833.31;;;10.26;100.00
46087;BME280;31824;49.648;8.640;2023-03-31T10:21:35;98806.91;;;10.48;100.00
46087;BME280;31824;49.648;8.640;2023-03-31T10:24:40;98819.97;;;10.85;100.00
46087;BME280;31824;49.648;8.640;2023-03-31T10:27:46;98809.16;;;11.32;100.00
46087;BME280;31824;49.648;8.640;2023-03-31T10:30:51;98815.09;;;11.30;100.00
46087;BME280;31824;49.648;8.640;2023-03-31T10:33:54;98803.19;;;11.35;100.00
46087;BME280;31824;49.648;8.640;2023-03-31T10:36:56;98801.88;;;11.55;100.00
46087;BME280;31824;49.648;8.640;2023-03-31T10:40:00;98796.34;;;11.51;100.00
46087;BME280;31824;49.648;8.640;2023-03-31T10:43:14;98800.38;;;11.59;100.00
46087;BME280;31824;49.648;8.640;2023-03-31T10:46:17;98791.31;;;11.15;100.00
46087;BME280;31824;49.648;8.640;2023-03-31T10:49:25;98785.06;;;11.13;100.00
46087;BME280;31824;49.648;8.640;2023-03-31T10:52:27;98806.16;;;11.01;100.00
46087;BME280;31824;49.648;8.640;2023-03-31T10:55:34;98760.22;;;11.21;100.00
46087;BME280;31824;49.648;8.640;2023-03-31T10:58:49;98748.50;;;11.43;100.00
46087;BME280;31824;49.648;8.640;2023-03-31T11:02:35;98760.22;;;11.48;100.00
46087;BME280;31824;49.648;8.640;2023-03-31T11:05:48;98757.50;;;11.46;100.00
46087;BME280;31824;49.648;8.640;2023-03-31T11:09:01;98769.72;;;11.59;100.00
46087;BME280;31824;49.648;8.640;2023-03-31T11:12:15;98774.72;;;11.83;100.00
46087;BME280;31824;49.648;8.640;2023-03-31T11:15:24;98753.84;;;11.58;100.00
46087;BME280;31824;49.648;8.640;2023-03-31T11:18:52;98759.78;;;11.82;100.00
46087;BME280;31824;49.648;8.640;2023-03-31T11:22:02;98762.44;;;11.69;100.00
46087;BME280;31824;49.648;8.640;2023-03-31T11:25:19;98748.47;;;11.70;100.00
46087;BME280;31824;49.648;8.640;2023-03-31T11:28:33;98762.25;;;11.65;100.00
46087;BME280;31824;49.648;8.640;2023-03-31T11:31:45;98751.28;;;11.73;100.00
46087;BME280;31824;49.648;8.640;2023-03-31T11:34:59;98758.56;;;11.90;100.00
46087;BME280;31824;49.648;8.640;2023-03-31T11:38:19;98747.59;;;12.11;100.00
46087;BME280;31824;49.648;8.640;2023-03-31T11:41:31;98745.13;;;12.42;100.00
46087;BME280;31824;49.648;8.640;2023-03-31T11:44:39;98747.81;;;12.72;100.00
46087;BME280;31824;49.648;8.640;2023-03-31T11:47:45;98746.75;;;12.98;100.00
46087;BME280;31824;49.648;8.640;2023-03-31T11:50:50;98751.75;;;13.09;100.00
46087;BME280;31824;49.648;8.640;2023-03-31T11:53:55;98743.66;;;13.21;100.00
46087;BME280;31824;49.648;8.640;2023-03-31T11:57:02;98730.66;;;13.39;100.00
46087;BME280;31824;49.648;8.640;2023-03-31T12:00:11;98733.72;;;14.09;100.00
46087;BME280;31824;49.648;8.640;2023-03-31T12:03:21;98727.41;;;13.91;100.00
46087;BME280;31824;49.648;8.640;2023-03-31T12:06:27;98736.47;;;13.48;100.00
46087;BME280;31824;49.648;8.640;2023-03-31T12:09:35;98738.13;;;13.62;100.00
46087;BME280;31824;49.648;8.640;2023-03-31T12:12:41;98715.97;;;13.59;100.00
46087;BME280;31824;49.648;8.640;2023-03-31T12:15:50;98707.13;;;13.58;100.00
46087;BME280;31824;49.648;8.640;2023-03-31T12:19:01;98704.53;;;13.75;100.00
46087;BME280;31824;49.648;8.640;2023-03-31T12:22:15;98712.34;;;14.21;100.00
46087;BME280;31824;49.648;8.640;2023-03-31T12:25:21;98715.72;;;14.35;100.00
46087;BME280;31824;49.648;8.640;2023-03-31T12:28:29;98701.50;;;14.49;100.00
46087;BME280;31824;49.648;8.640;2023-03-31T12:31:35;98697.31;;;14.37;100.00
46087;BME280;31824;49.648;8.640;2023-03-31T12:34:45;98700.41;;;14.79;100.00
46087;BME280;31824;49.648;8.640;2023-03-31T12:41:00;98681.38;;;15.21;100.00
46087;BME280;31824;49.648;8.640;2023-03-31T12:44:16;98685.22;;;14.75;100.00
46087;BME280;31824;49.648;8.640;2023-03-31T12:47:35;98697.13;;;15.01;100.00
46087;BME280;31824;49.648;8.640;2023-03-31T12:50:55;98703.56;;;15.06;100.00
46087;BME280;31824;49.648;8.640;2023-03-31T12:57:25;98704.00;;;14.63;100.00
46087;BME280;31824;49.648;8.640;2023-03-31T13:00:27;98690.72;;;14.79;100.00
46087;BME280;31824;49.648;8.640;2023-03-31T13:04:48;98700.09;;;15.07;100.00
46087;BME280;31824;49.648;8.640;2023-03-31T13:07:51;98686.16;;;14.42;100.00
46087;BME280;31824;49.648;8.640;2023-03-31T13:10:56;98711.25;;;14.50;100.00
46087;BME280;31824;49.648;8.640;2023-03-31T13:14:00;98701.81;;;14.56;100.00
46087;BME280;31824;49.648;8.640;2023-03-31T13:17:22;98688.31;;;14.16;100.00
46087;BME280;31824;49.648;8.640;2023-03-31T13:20:32;98685.16;;;13.74;100.00
46087;BME280;31824;49.648;8.640;2023-03-31T13:23:43;98699.38;;;14.26;100.00
46087;BME280;31824;49.648;8.640;2023-03-31T13:26:47;98686.03;;;14.06;100.00
46087;BME280;31824;49.648;8.640;2023-03-31T13:29:54;98663.41;;;13.95;100.00
46087;BME280;31824;49.648;8.640;2023-03-31T13:33:05;98672.72;;;13.88;100.00
46087;BME280;31824;49.648;8.640;2023-03-31T13:36:48;98685.00;;;13.71;100.00
46087;BME280;31824;49.648;8.640;2023-03-31T13:47:09;98670.03;;;13.55;100.00
46087;BME280;31824;49.648;8.640;2023-03-31T13:50:34;98667.41;;;13.55;100.00
46087;BME280;31824;49.648;8.640;2023-03-31T13:54:08;98679.41;;;13.35;100.00
46087;BME280;31824;49.648;8.640;2023-03-31T14:01:36;98679.97;;;13.29;100.00
46087;BME280;31824;49.648;8.640;2023-03-31T14:05:05;98677.75;;;13.36;100.00
46087;BME280;31824;49.648;8.640;2023-03-31T14:08:22;98666.06;;;13.32;100.00
46087;BME280;31824;49.648;8.640;2023-03-31T14:11:30;98652.41;;;13.71;100.00
46087;BME280;31824;49.648;8.640;2023-03-31T14:14:32;98657.38;;;13.81;100.00
46087;BME280;31824;49.648;8.640;2023-03-31T14:17:36;98639.47;;;13.59;100.00
46087;BME280;31824;49.648;8.640;2023-03-31T14:21:00;98612.16;;;13.58;100.00
46087;BME280;31824;49.648;8.640;2023-03-31T14:24:12;98620.50;;;13.34;100.00
46087;BME280;31824;49.648;8.640;2023-03-31T14:27:31;98628.63;;;13.54;100.00
46087;BME280;31824;49.648;8.640;2023-03-31T14:30:44;98632.88;;;13.67;100.00
46087;BME280;31824;49.648;8.640;2023-03-31T14:34:16;98635.66;;;13.87;100.00
46087;BME280;31824;49.648;8.640;2023-03-31T14:37:22;98643.78;;;14.57;100.00
46087;BME280;31824;49.648;8.640;2023-03-31T14:40:25;98639.19;;;15.24;100.00
46087;BME280;31824;49.648;8.640;2023-03-31T14:43:30;98637.19;;;14.49;100.00
46087;BME280;31824;49.648;8.640;2023-03-31T14:46:40;98635.84;;;14.23;100.00
46087;BME280;31824;49.648;8.640;2023-03-31T14:49:42;98624.88;;;13.82;100.00
46087;BME280;31824;49.648;8.640;2023-03-31T14:52:46;98624.31;;;13.71;100.00
46087;BME280;31824;49.648;8.640;2023-03-31T14:55:48;98635.75;;;14.05;100.00
46087;BME280;31824;49.648;8.640;2023-03-31T14:59:02;98628.34;;;13.81;100.00
46087;BME280;31824;49.648;8.640;2023-03-31T15:02:15;98635.88;;;13.42;100.00
46087;BME280;31824;49.648;8.640;2023-03-31T15:05:25;98633.69;;;13.03;100.00
46087;BME280;31824;49.648;8.640;2023-03-31T15:08:30;98651.69;;;12.65;100.00
46087;BME280;31824;49.648;8.640;2023-03-31T15:11:34;98680.84;;;12.54;100.00
46087;BME280;31824;49.648;8.640;2023-03-31T15:14:42;98703.53;;;12.37;100.00
46087;BME280;31824;49.648;8.640;2023-03-31T15:17:50;98715.03;;;10.87;100.00
46087;BME280;31824;49.648;8.640;2023-03-31T15:20:52;98708.06;;;10.49;100.00
46087;BME280;31824;49.648;8.640;2023-03-31T15:23:57;98692.34;;;10.11;100.00
46087;BME280;31824;49.648;8.640;2023-03-31T15:27:06;98685.13;;;10.21;100.00
46087;BME280;31824;49.648;8.640;2023-03-31T15:30:16;98676.06;;;10.54;100.00
46087;BME280;31824;49.648;8.640;2023-03-31T15:33:25;98668.94;;;10.78;100.00
46087;BME280;31824;49.648;8.640;2023-03-31T15:36:31;98659.53;;;10.95;100.00
46087;BME280;31824;49.648;8.640;2023-03-31T15:39:37;98669.13;;;11.22;100.00
46087;BME280;31824;49.648;8.640;2023-03-31T15:42:41;98671.78;;;11.63;100.00
46087;BME280;31824;49.648;8.640;2023-03-31T15:46:17;98673.63;;;11.93;100.00
46087;BME280;31824;49.648;8.640;2023-03-31T15:49:25;98668.25;;;11.63;100.00
46087;BME280;31824;49.648;8.640;2023-03-31T15:52:30;98665.81;;;11.66;100.00
46087;BME280;31824;49.648;8.640;2023-03-31T15:55:40;98664.56;;;11.74;100.00
46087;BME280;31824;49.648;8.640;2023-03-31T15:58:57;98656.50;;;11.71;100.00
46087;BME280;31824;49.648;8.640;2023-03-31T16:02:01;98650.97;;;11.81;100.00
46087;BME280;31824;49.648;8.640;2023-03-31T16:05:05;98653.63;;;11.81;100.00
46087;BME280;31824;49.648;8.640;2023-03-31T16:08:28;98646.03;;;11.86;100.00
46087;BME280;31824;49.648;8.640;2023-03-31T16:11:36;98633.59;;;11.83;100.00
46087;BME280;31824;49.648;8.640;2023-03-31T16:14:47;98639.53;;;11.94;100.00
46087;BME280;31824;49.648;8.640;2023-03-31T16:17:55;98637.69;;;11.93;100.00
46087;BME280;31824;49.648;8.640;2023-03-31T16:21:02;98636.13;;;11.95;100.00
46087;BME280;31824;49.648;8.640;2023-03-31T16:24:07;98649.84;;;11.91;100.00
46087;BME280;31824;49.648;8.640;2023-03-31T16:27:09;98644.03;;;11.82;100.00
46087;BME280;31824;49.648;8.640;2023-03-31T16:30:19;98645.72;;;11.81;100.00
46087;BME280;31824;49.648;8.640;2023-03-31T16:33:50;98651.25;;;11.71;100.00
46087;BME280;31824;49.648;8.640;2023-03-31T16:36:53;98643.66;;;11.62;100.00
46087;BME280;31824;49.648;8.640;2023-03-31T16:39:56;98646.63;;;11.54;100.00
46087;BME280;31824;49.648;8.640;2023-03-31T16:43:10;98646.72;;;11.55;100.00